Seiryumaru — JD3476 — position and weather

sailwx.info

Track history (hours):
 
Tides and Currents Weather Stations Pressure Air Temp Water Temp Dewpoint Dewpoint Depression Visibility Wind Speed Wind Dir Waves Ship Positions

Seiryumaru

Last reported at 2017-Sep-19 15:17 UTC. Time now 2017-Sep-20 01:54 UTC.
Position N 34°45' E 139°10'.

Length 61 m; draft 3.7 m.

Type: Cargo ship. MMSI: 431004176.

Date/timePositionNaut miles runAvg speedWind from/ knotsBaromVisibWave heightAir tempDewpointWater temp
2017-Sep-19 15:17N 34°45' E 139°10'3 9.8
2017-Sep-19 15:00N 34°47' E 139°12'16 8.0
2017-Sep-19 13:02N 34°58' E 139°27'0 8.5
2017-Sep-19 12:59N 34°58' E 139°27'4 8.3
2017-Sep-19 12:30N 35°00' E 139°31'5 9.3
2017-Sep-19 12:00N 35°04' E 139°35'510.1
2017-Sep-19 11:30N 35°07' E 139°40'510.5
2017-Sep-19 11:00N 35°11' E 139°44'510.2
2017-Sep-19 10:30N 35°15' E 139°46'611.4
2017-Sep-19 10:01N 35°20' E 139°43'510.2
2017-Sep-19 09:31N 35°25' E 139°44'510.0
2017-Sep-19 09:01N 35°29' E 139°49'0 0.3
2017-Sep-19 08:31N 35°29' E 139°49'3 5.3
2017-Sep-19 08:01N 35°26' E 139°49'510.7
2017-Sep-19 07:31N 35°21' E 139°51'0 0.0
2017-Sep-19 03:57N 35°21' E 139°51'0 0.8
2017-Sep-19 03:30N 35°21' E 139°51'0 0.0
2017-Sep-19 03:01N 35°21' E 139°51'0 0.0
2017-Sep-19 02:31N 35°21' E 139°51'0 0.0
2017-Sep-19 02:01N 35°21' E 139°51'0 0.0
2017-Sep-19 01:31N 35°21' E 139°51'0 0.0
2017-Sep-19 01:00N 35°21' E 139°51'0 0.0
2017-Sep-19 00:31N 35°21' E 139°51'0 0.0
2017-Sep-19 00:01N 35°21' E 139°51'0 0.0
2017-Sep-18 23:30N 35°21' E 139°51'0 0.0
2017-Sep-18 23:01N 35°21' E 139°51'0 0.0
2017-Sep-18 22:31N 35°21' E 139°51'0 0.0
2017-Sep-18 22:00N 35°21' E 139°51'0 0.0
2017-Sep-18 21:31N 35°21' E 139°51'0 0.0
2017-Sep-18 21:01N 35°21' E 139°51'0 0.0
2017-Sep-18 20:31N 35°21' E 139°51'0 0.0
2017-Sep-18 20:01N 35°21' E 139°51'0 0.0
2017-Sep-18 19:30N 35°21' E 139°51'0 0.0
2017-Sep-18 19:01N 35°21' E 139°51'0 0.0
2017-Sep-18 18:31N 35°21' E 139°51'0 0.0
2017-Sep-18 18:01N 35°21' E 139°51'0 0.0
2017-Sep-18 17:31N 35°21' E 139°51'0 0.0
2017-Sep-18 17:01N 35°21' E 139°51'0 0.0
2017-Sep-18 16:31N 35°21' E 139°51'0 0.0
2017-Sep-18 16:01N 35°21' E 139°51'0 0.0
2017-Sep-18 15:31N 35°21' E 139°51'0 0.0
2017-Sep-18 15:01N 35°21' E 139°51'0 0.0
2017-Sep-18 14:31N 35°21' E 139°51'0 0.0
2017-Sep-18 14:01N 35°21' E 139°51'0 0.0
2017-Sep-18 13:30N 35°21' E 139°51'0 0.0
2017-Sep-18 13:01N 35°21' E 139°51'0 0.0
2017-Sep-18 12:31N 35°21' E 139°51'0 0.0
2017-Sep-18 12:01N 35°21' E 139°51'0 0.0
2017-Sep-18 11:30N 35°21' E 139°51'0 0.0
2017-Sep-18 11:01N 35°21' E 139°51'0 0.0
2017-Sep-18 10:31N 35°21' E 139°51'0 0.0
2017-Sep-18 10:01N 35°21' E 139°51'0 0.0
2017-Sep-18 09:30N 35°21' E 139°51'0 0.0
2017-Sep-18 09:01N 35°21' E 139°51'2 3.4
2017-Sep-18 08:31N 35°23' E 139°50'611.7
2017-Sep-18 08:01N 35°28' E 139°54'611.7
2017-Sep-18 07:30N 35°34' E 139°56'510.9
2017-Sep-18 07:01N 35°39' E 139°58'2 4.3
2017-Sep-18 06:30N 35°41' E 139°57'0 0.0
2017-Sep-18 06:01N 35°41' E 139°57'0 0.0
2017-Sep-18 05:30N 35°41' E 139°57'0 0.0
2017-Sep-18 05:00N 35°41' E 139°57'0 0.0
2017-Sep-18 04:27N 35°41' E 139°57'  
2017-Sep-15 17:15N 35°29' E 139°52'410.6
2017-Sep-15 16:53N 35°26' E 139°49'410.6
2017-Sep-15 16:31N 35°23' E 139°46'510.1
2017-Sep-15 16:00N 35°18' E 139°45'510.4
2017-Sep-15 15:30N 35°13' E 139°47'510.7
2017-Sep-15 15:00N 35°08' E 139°45'611.4
2017-Sep-15 14:30N 35°04' E 139°40'  
2017-Sep-11 05:02N 34°38' E 134°56'112.7
2017-Sep-11 04:59N 34°38' E 134°57'612.2
2017-Sep-11 04:30N 34°36' E 135°04'611.3
2017-Sep-11 04:00N 34°36' E 135°10'612.0
2017-Sep-11 03:30N 34°37' E 135°18'611.4
2017-Sep-11 03:00N 34°39' E 135°24'2 1.8
2017-Sep-11 01:40N 34°39' E 135°27'0 0.0
2017-Sep-11 01:29N 34°39' E 135°27'0 0.0
2017-Sep-11 01:00N 34°39' E 135°27'0 0.0
2017-Sep-11 00:20N 34°39' E 135°27'0 0.0
2017-Sep-11 00:00N 34°39' E 135°27'0 0.0
2017-Sep-10 23:30N 34°39' E 135°27'0 0.0
2017-Sep-10 23:00N 34°39' E 135°27'3 6.8
2017-Sep-10 22:30N 34°38' E 135°23'510.6
2017-Sep-10 22:00N 34°33' E 135°24'2 2.0
2017-Sep-10 21:01N 34°31' E 135°24'0 0.0
2017-Sep-10 21:00N 34°31' E 135°24'0 0.0
2017-Sep-10 20:30N 34°31' E 135°24'0 0.0
2017-Sep-10 20:00N 34°31' E 135°24'0 0.0
2017-Sep-10 19:30N 34°31' E 135°24'0 0.0
2017-Sep-10 19:00N 34°31' E 135°24'0 0.0
2017-Sep-10 18:30N 34°31' E 135°24'0 0.0
2017-Sep-10 18:00N 34°31' E 135°24'0 0.0
2017-Sep-10 17:30N 34°31' E 135°24'0 0.0
2017-Sep-10 17:00N 34°31' E 135°24'0 0.0
2017-Sep-10 16:30N 34°31' E 135°24'0 0.0
2017-Sep-10 16:00N 34°31' E 135°24'0 0.0
2017-Sep-10 15:30N 34°31' E 135°24'0 0.0
2017-Sep-10 15:00N 34°31' E 135°24'0 0.0
2017-Sep-10 14:00N 34°31' E 135°24'0 0.0
2017-Sep-10 13:30N 34°31' E 135°24'0 0.0
2017-Sep-10 13:00N 34°31' E 135°24'0 0.0
2017-Sep-10 12:30N 34°31' E 135°24'0 0.0
2017-Sep-10 12:00N 34°31' E 135°24'0 0.0
2017-Sep-10 11:30N 34°31' E 135°24'0 0.0
2017-Sep-10 11:00N 34°31' E 135°24'0 0.0
2017-Sep-10 10:30N 34°31' E 135°24'0 0.0
2017-Sep-10 10:00N 34°31' E 135°24'0 0.0
2017-Sep-10 09:30N 34°31' E 135°24'0 0.0
2017-Sep-10 09:00N 34°31' E 135°24'0 0.0
2017-Sep-10 08:30N 34°31' E 135°24'0 0.0
2017-Sep-10 08:00N 34°31' E 135°24'0 0.0
2017-Sep-10 07:30N 34°31' E 135°24'0 0.0
2017-Sep-10 07:00N 34°31' E 135°24'0 0.0
2017-Sep-10 06:30N 34°31' E 135°24'0 0.0
2017-Sep-10 06:00N 34°31' E 135°24'0 0.0
2017-Sep-10 05:30N 34°31' E 135°24'0 0.0
2017-Sep-10 05:00N 34°31' E 135°24'0 0.0
2017-Sep-10 04:30N 34°31' E 135°24'0 0.0
2017-Sep-10 04:00N 34°31' E 135°24'0 0.0
2017-Sep-10 03:30N 34°31' E 135°24'0 0.0
2017-Sep-10 02:59N 34°31' E 135°24'0 0.0
2017-Sep-10 02:30N 34°31' E 135°24'0 0.0
2017-Sep-10 02:00N 34°31' E 135°24'0 0.0
2017-Sep-10 01:30N 34°31' E 135°24'0 0.0
2017-Sep-10 01:00N 34°31' E 135°24'0 0.0
2017-Sep-10 00:30N 34°31' E 135°24'0 0.0
2017-Sep-09 23:59N 34°31' E 135°24'0 0.0
2017-Sep-09 23:30N 34°31' E 135°24'0 0.0
2017-Sep-09 23:00N 34°31' E 135°24'0 0.0
2017-Sep-09 22:30N 34°31' E 135°24'0 0.0
2017-Sep-09 22:00N 34°31' E 135°24'0 0.0
2017-Sep-09 21:30N 34°31' E 135°24'0 0.0
2017-Sep-09 21:00N 34°31' E 135°24'0 0.0
2017-Sep-09 20:30N 34°31' E 135°24'0 0.0
2017-Sep-09 20:00N 34°31' E 135°24'0 0.0
2017-Sep-09 19:30N 34°31' E 135°24'0 0.0
2017-Sep-09 19:00N 34°31' E 135°24'0 0.0
2017-Sep-09 18:30N 34°31' E 135°24'0 0.0
2017-Sep-09 18:00N 34°31' E 135°24'0 0.0
2017-Sep-09 17:30N 34°31' E 135°24'0 0.0
2017-Sep-09 17:00N 34°31' E 135°24'0 0.0
2017-Sep-09 16:30N 34°31' E 135°24'0 0.0
2017-Sep-09 16:00N 34°31' E 135°24'0 0.0
2017-Sep-09 15:30N 34°31' E 135°24'  
Track history (hours):
 
Tides and Currents Weather Stations Pressure Air Temp Water Temp Dewpoint Dewpoint Depression Visibility Wind Speed Wind Dir Waves Ship Positions

Seiryumaru

Last reported at 2017-Sep-19 15:17 UTC. Time now 2017-Sep-20 01:54 UTC.
Position N 34°45' E 139°10'.

Length 61 m; draft 3.7 m.

Type: Cargo ship. MMSI: 431004176.

Date/timePositionNaut miles runAvg speedWind from/ knotsBaromVisibWave heightAir tempDewpointWater temp
2017-Sep-19 15:17N 34°45' E 139°10'3 9.8
2017-Sep-19 15:00N 34°47' E 139°12'16 8.0
2017-Sep-19 13:02N 34°58' E 139°27'0 8.5
2017-Sep-19 12:59N 34°58' E 139°27'4 8.3
2017-Sep-19 12:30N 35°00' E 139°31'5 9.3
2017-Sep-19 12:00N 35°04' E 139°35'510.1
2017-Sep-19 11:30N 35°07' E 139°40'510.5
2017-Sep-19 11:00N 35°11' E 139°44'510.2
2017-Sep-19 10:30N 35°15' E 139°46'611.4
2017-Sep-19 10:01N 35°20' E 139°43'510.2
2017-Sep-19 09:31N 35°25' E 139°44'510.0
2017-Sep-19 09:01N 35°29' E 139°49'0 0.3
2017-Sep-19 08:31N 35°29' E 139°49'3 5.3
2017-Sep-19 08:01N 35°26' E 139°49'510.7
2017-Sep-19 07:31N 35°21' E 139°51'0 0.0
2017-Sep-19 03:57N 35°21' E 139°51'0 0.8
2017-Sep-19 03:30N 35°21' E 139°51'0 0.0
2017-Sep-19 03:01N 35°21' E 139°51'0 0.0
2017-Sep-19 02:31N 35°21' E 139°51'0 0.0
2017-Sep-19 02:01N 35°21' E 139°51'0 0.0
2017-Sep-19 01:31N 35°21' E 139°51'0 0.0
2017-Sep-19 01:00N 35°21' E 139°51'0 0.0
2017-Sep-19 00:31N 35°21' E 139°51'0 0.0
2017-Sep-19 00:01N 35°21' E 139°51'0 0.0
2017-Sep-18 23:30N 35°21' E 139°51'0 0.0
2017-Sep-18 23:01N 35°21' E 139°51'0 0.0
2017-Sep-18 22:31N 35°21' E 139°51'0 0.0
2017-Sep-18 22:00N 35°21' E 139°51'0 0.0
2017-Sep-18 21:31N 35°21' E 139°51'0 0.0
2017-Sep-18 21:01N 35°21' E 139°51'0 0.0
2017-Sep-18 20:31N 35°21' E 139°51'0 0.0
2017-Sep-18 20:01N 35°21' E 139°51'0 0.0
2017-Sep-18 19:30N 35°21' E 139°51'0 0.0
2017-Sep-18 19:01N 35°21' E 139°51'0 0.0
2017-Sep-18 18:31N 35°21' E 139°51'0 0.0
2017-Sep-18 18:01N 35°21' E 139°51'0 0.0
2017-Sep-18 17:31N 35°21' E 139°51'0 0.0
2017-Sep-18 17:01N 35°21' E 139°51'0 0.0
2017-Sep-18 16:31N 35°21' E 139°51'0 0.0
2017-Sep-18 16:01N 35°21' E 139°51'0 0.0
2017-Sep-18 15:31N 35°21' E 139°51'0 0.0
2017-Sep-18 15:01N 35°21' E 139°51'0 0.0
2017-Sep-18 14:31N 35°21' E 139°51'0 0.0
2017-Sep-18 14:01N 35°21' E 139°51'0 0.0
2017-Sep-18 13:30N 35°21' E 139°51'0 0.0
2017-Sep-18 13:01N 35°21' E 139°51'0 0.0
2017-Sep-18 12:31N 35°21' E 139°51'0 0.0
2017-Sep-18 12:01N 35°21' E 139°51'0 0.0
2017-Sep-18 11:30N 35°21' E 139°51'0 0.0
2017-Sep-18 11:01N 35°21' E 139°51'0 0.0
2017-Sep-18 10:31N 35°21' E 139°51'0 0.0
2017-Sep-18 10:01N 35°21' E 139°51'0 0.0
2017-Sep-18 09:30N 35°21' E 139°51'0 0.0
2017-Sep-18 09:01N 35°21' E 139°51'2 3.4
2017-Sep-18 08:31N 35°23' E 139°50'611.7
2017-Sep-18 08:01N 35°28' E 139°54'611.7
2017-Sep-18 07:30N 35°34' E 139°56'510.9
2017-Sep-18 07:01N 35°39' E 139°58'2 4.3
2017-Sep-18 06:30N 35°41' E 139°57'0 0.0
2017-Sep-18 06:01N 35°41' E 139°57'0 0.0
2017-Sep-18 05:30N 35°41' E 139°57'0 0.0
2017-Sep-18 05:00N 35°41' E 139°57'0 0.0
2017-Sep-18 04:27N 35°41' E 139°57'  
2017-Sep-15 17:15N 35°29' E 139°52'410.6
2017-Sep-15 16:53N 35°26' E 139°49'410.6
2017-Sep-15 16:31N 35°23' E 139°46'510.1
2017-Sep-15 16:00N 35°18' E 139°45'510.4
2017-Sep-15 15:30N 35°13' E 139°47'510.7
2017-Sep-15 15:00N 35°08' E 139°45'611.4
2017-Sep-15 14:30N 35°04' E 139°40'  
2017-Sep-11 05:02N 34°38' E 134°56'112.7
2017-Sep-11 04:59N 34°38' E 134°57'612.2
2017-Sep-11 04:30N 34°36' E 135°04'611.3
2017-Sep-11 04:00N 34°36' E 135°10'612.0
2017-Sep-11 03:30N 34°37' E 135°18'611.4
2017-Sep-11 03:00N 34°39' E 135°24'2 1.8
2017-Sep-11 01:40N 34°39' E 135°27'0 0.0
2017-Sep-11 01:29N 34°39' E 135°27'0 0.0
2017-Sep-11 01:00N 34°39' E 135°27'0 0.0
2017-Sep-11 00:20N 34°39' E 135°27'0 0.0
2017-Sep-11 00:00N 34°39' E 135°27'0 0.0
2017-Sep-10 23:30N 34°39' E 135°27'0 0.0
2017-Sep-10 23:00N 34°39' E 135°27'3 6.8
2017-Sep-10 22:30N 34°38' E 135°23'510.6
2017-Sep-10 22:00N 34°33' E 135°24'2 2.0
2017-Sep-10 21:01N 34°31' E 135°24'0 0.0
2017-Sep-10 21:00N 34°31' E 135°24'0 0.0
2017-Sep-10 20:30N 34°31' E 135°24'0 0.0
2017-Sep-10 20:00N 34°31' E 135°24'0 0.0
2017-Sep-10 19:30N 34°31' E 135°24'0 0.0
2017-Sep-10 19:00N 34°31' E 135°24'0 0.0
2017-Sep-10 18:30N 34°31' E 135°24'0 0.0
2017-Sep-10 18:00N 34°31' E 135°24'0 0.0
2017-Sep-10 17:30N 34°31' E 135°24'0 0.0
2017-Sep-10 17:00N 34°31' E 135°24'0 0.0
2017-Sep-10 16:30N 34°31' E 135°24'0 0.0
2017-Sep-10 16:00N 34°31' E 135°24'0 0.0
2017-Sep-10 15:30N 34°31' E 135°24'0 0.0
2017-Sep-10 15:00N 34°31' E 135°24'0 0.0
2017-Sep-10 14:00N 34°31' E 135°24'0 0.0
2017-Sep-10 13:30N 34°31' E 135°24'0 0.0
2017-Sep-10 13:00N 34°31' E 135°24'0 0.0
2017-Sep-10 12:30N 34°31' E 135°24'0 0.0
2017-Sep-10 12:00N 34°31' E 135°24'0 0.0
2017-Sep-10 11:30N 34°31' E 135°24'0 0.0
2017-Sep-10 11:00N 34°31' E 135°24'0 0.0
2017-Sep-10 10:30N 34°31' E 135°24'0 0.0
2017-Sep-10 10:00N 34°31' E 135°24'0 0.0
2017-Sep-10 09:30N 34°31' E 135°24'0 0.0
2017-Sep-10 09:00N 34°31' E 135°24'0 0.0
2017-Sep-10 08:30N 34°31' E 135°24'0 0.0
2017-Sep-10 08:00N 34°31' E 135°24'0 0.0
2017-Sep-10 07:30N 34°31' E 135°24'0 0.0
2017-Sep-10 07:00N 34°31' E 135°24'0 0.0
2017-Sep-10 06:30N 34°31' E 135°24'0 0.0
2017-Sep-10 06:00N 34°31' E 135°24'0 0.0
2017-Sep-10 05:30N 34°31' E 135°24'0 0.0
2017-Sep-10 05:00N 34°31' E 135°24'0 0.0
2017-Sep-10 04:30N 34°31' E 135°24'0 0.0
2017-Sep-10 04:00N 34°31' E 135°24'0 0.0
2017-Sep-10 03:30N 34°31' E 135°24'0 0.0
2017-Sep-10 02:59N 34°31' E 135°24'0 0.0
2017-Sep-10 02:30N 34°31' E 135°24'0 0.0
2017-Sep-10 02:00N 34°31' E 135°24'0 0.0
2017-Sep-10 01:30N 34°31' E 135°24'0 0.0
2017-Sep-10 01:00N 34°31' E 135°24'0 0.0
2017-Sep-10 00:30N 34°31' E 135°24'0 0.0
2017-Sep-09 23:59N 34°31' E 135°24'0 0.0
2017-Sep-09 23:30N 34°31' E 135°24'0 0.0
2017-Sep-09 23:00N 34°31' E 135°24'0 0.0
2017-Sep-09 22:30N 34°31' E 135°24'0 0.0
2017-Sep-09 22:00N 34°31' E 135°24'0 0.0
2017-Sep-09 21:30N 34°31' E 135°24'0 0.0
2017-Sep-09 21:00N 34°31' E 135°24'0 0.0
2017-Sep-09 20:30N 34°31' E 135°24'0 0.0
2017-Sep-09 20:00N 34°31' E 135°24'0 0.0
2017-Sep-09 19:30N 34°31' E 135°24'0 0.0
2017-Sep-09 19:00N 34°31' E 135°24'0 0.0
2017-Sep-09 18:30N 34°31' E 135°24'0 0.0
2017-Sep-09 18:00N 34°31' E 135°24'0 0.0
2017-Sep-09 17:30N 34°31' E 135°24'0 0.0
2017-Sep-09 17:00N 34°31' E 135°24'0 0.0
2017-Sep-09 16:30N 34°31' E 135°24'0 0.0
2017-Sep-09 16:00N 34°31' E 135°24'0 0.0
2017-Sep-09 15:30N 34°31' E 135°24'  

Dump ship's entire track history